sensor_id;sensor_type;location;lat;lon;timestamp;P1;durP1;ratioP1;P2;durP2;ratioP2
2840;SDS011;53423;49.224;12.074;2023-03-01T00:01:44;17.77;;;15.40;;
2840;SDS011;53423;49.224;12.074;2023-03-01T00:04:12;21.07;;;15.50;;
2840;SDS011;53423;49.224;12.074;2023-03-01T00:06:43;21.67;;;16.43;;
2840;SDS011;53423;49.224;12.074;2023-03-01T00:09:12;18.53;;;15.63;;
2840;SDS011;53423;49.224;12.074;2023-03-01T00:11:41;18.53;;;16.00;;
2840;SDS011;53423;49.224;12.074;2023-03-01T00:14:08;21.57;;;15.33;;
2840;SDS011;53423;49.224;12.074;2023-03-01T00:16:37;19.73;;;14.83;;
2840;SDS011;53423;49.224;12.074;2023-03-01T00:19:06;19.70;;;15.63;;
2840;SDS011;53423;49.224;12.074;2023-03-01T00:21:37;18.67;;;15.23;;
2840;SDS011;53423;49.224;12.074;2023-03-01T00:24:06;21.00;;;16.03;;
2840;SDS011;53423;49.224;12.074;2023-03-01T00:26:35;21.87;;;15.93;;
2840;SDS011;53423;49.224;12.074;2023-03-01T00:29:03;21.37;;;16.63;;
2840;SDS011;53423;49.224;12.074;2023-03-01T00:31:32;18.37;;;14.77;;
2840;SDS011;53423;49.224;12.074;2023-03-01T00:34:01;20.93;;;15.40;;
2840;SDS011;53423;49.224;12.074;2023-03-01T00:36:31;19.40;;;15.27;;
2840;SDS011;53423;49.224;12.074;2023-03-01T00:39:01;20.60;;;16.43;;
2840;SDS011;53423;49.224;12.074;2023-03-01T00:41:32;23.40;;;16.50;;
2840;SDS011;53423;49.224;12.074;2023-03-01T00:44:01;19.87;;;16.10;;
2840;SDS011;53423;49.224;12.074;2023-03-01T00:46:29;22.10;;;15.90;;
2840;SDS011;53423;49.224;12.074;2023-03-01T00:48:58;20.23;;;16.27;;
2840;SDS011;53423;49.224;12.074;2023-03-01T00:51:28;22.20;;;16.33;;
2840;SDS011;53423;49.224;12.074;2023-03-01T00:53:57;19.63;;;15.73;;
2840;SDS011;53423;49.224;12.074;2023-03-01T00:56:26;19.67;;;15.23;;
2840;SDS011;53423;49.224;12.074;2023-03-01T00:58:56;20.57;;;15.50;;
2840;SDS011;53423;49.224;12.074;2023-03-01T01:01:25;20.57;;;16.20;;
2840;SDS011;53423;49.224;12.074;2023-03-01T01:03:57;19.50;;;15.60;;
2840;SDS011;53423;49.224;12.074;2023-03-01T01:06:27;19.77;;;15.57;;
2840;SDS011;53423;49.224;12.074;2023-03-01T01:08:57;21.60;;;16.50;;
2840;SDS011;53423;49.224;12.074;2023-03-01T01:11:26;21.47;;;15.67;;
2840;SDS011;53423;49.224;12.074;2023-03-01T01:13:57;18.83;;;15.40;;
2840;SDS011;53423;49.224;12.074;2023-03-01T01:16:26;20.43;;;15.87;;
2840;SDS011;53423;49.224;12.074;2023-03-01T01:18:55;20.07;;;15.33;;
2840;SDS011;53423;49.224;12.074;2023-03-01T01:21:24;19.80;;;15.67;;
2840;SDS011;53423;49.224;12.074;2023-03-01T01:23:53;19.07;;;15.90;;
2840;SDS011;53423;49.224;12.074;2023-03-01T01:26:22;20.17;;;15.83;;
2840;SDS011;53423;49.224;12.074;2023-03-01T01:28:51;20.10;;;15.63;;
2840;SDS011;53423;49.224;12.074;2023-03-01T01:31:21;21.10;;;15.63;;
2840;SDS011;53423;49.224;12.074;2023-03-01T01:33:50;20.70;;;15.87;;
2840;SDS011;53423;49.224;12.074;2023-03-01T01:36:18;19.90;;;15.03;;
2840;SDS011;53423;49.224;12.074;2023-03-01T01:38:47;20.20;;;15.47;;
2840;SDS011;53423;49.224;12.074;2023-03-01T01:41:17;21.17;;;15.70;;
2840;SDS011;53423;49.224;12.074;2023-03-01T01:43:47;19.97;;;15.60;;
2840;SDS011;53423;49.224;12.074;2023-03-01T01:46:20;20.17;;;15.47;;
2840;SDS011;53423;49.224;12.074;2023-03-01T01:48:55;20.67;;;15.47;;
2840;SDS011;53423;49.224;12.074;2023-03-01T01:51:28;19.40;;;15.83;;
2840;SDS011;53423;49.224;12.074;2023-03-01T01:54:08;18.87;;;14.47;;
2840;SDS011;53423;49.224;12.074;2023-03-01T01:56:40;20.40;;;16.00;;
2840;SDS011;53423;49.224;12.074;2023-03-01T01:59:11;20.37;;;14.73;;
2840;SDS011;53423;49.224;12.074;2023-03-01T02:01:41;18.50;;;15.80;;
2840;SDS011;53423;49.224;12.074;2023-03-01T02:04:10;20.53;;;15.93;;
2840;SDS011;53423;49.224;12.074;2023-03-01T02:06:39;19.33;;;15.13;;
2840;SDS011;53423;49.224;12.074;2023-03-01T02:09:14;20.67;;;16.07;;
2840;SDS011;53423;49.224;12.074;2023-03-01T02:11:43;20.90;;;15.57;;
2840;SDS011;53423;49.224;12.074;2023-03-01T02:14:11;20.37;;;14.27;;
2840;SDS011;53423;49.224;12.074;2023-03-01T02:16:43;18.60;;;14.80;;
2840;SDS011;53423;49.224;12.074;2023-03-01T02:19:13;21.00;;;15.93;;
2840;SDS011;53423;49.224;12.074;2023-03-01T02:21:55;22.20;;;15.73;;
2840;SDS011;53423;49.224;12.074;2023-03-01T02:24:30;19.77;;;15.77;;
2840;SDS011;53423;49.224;12.074;2023-03-01T02:27:05;18.43;;;15.10;;
2840;SDS011;53423;49.224;12.074;2023-03-01T02:29:36;19.73;;;15.80;;
2840;SDS011;53423;49.224;12.074;2023-03-01T02:32:05;19.17;;;15.10;;
2840;SDS011;53423;49.224;12.074;2023-03-01T02:34:33;21.53;;;15.60;;
2840;SDS011;53423;49.224;12.074;2023-03-01T02:37:02;18.77;;;14.83;;
2840;SDS011;53423;49.224;12.074;2023-03-01T02:39:36;20.03;;;14.77;;
2840;SDS011;53423;49.224;12.074;2023-03-01T02:42:09;20.33;;;15.27;;
2840;SDS011;53423;49.224;12.074;2023-03-01T02:44:41;19.97;;;13.90;;
2840;SDS011;53423;49.224;12.074;2023-03-01T02:47:09;17.67;;;14.33;;
2840;SDS011;53423;49.224;12.074;2023-03-01T02:49:37;18.50;;;14.90;;
2840;SDS011;53423;49.224;12.074;2023-03-01T02:52:08;19.50;;;14.83;;
2840;SDS011;53423;49.224;12.074;2023-03-01T02:54:48;23.17;;;15.53;;
2840;SDS011;53423;49.224;12.074;2023-03-01T02:57:22;19.23;;;15.33;;
2840;SDS011;53423;49.224;12.074;2023-03-01T02:59:55;19.40;;;14.97;;
2840;SDS011;53423;49.224;12.074;2023-03-01T03:02:25;20.33;;;15.33;;
2840;SDS011;53423;49.224;12.074;2023-03-01T03:05:04;22.07;;;16.03;;
2840;SDS011;53423;49.224;12.074;2023-03-01T03:07:35;20.20;;;15.20;;
2840;SDS011;53423;49.224;12.074;2023-03-01T03:10:06;18.57;;;14.93;;
2840;SDS011;53423;49.224;12.074;2023-03-01T03:12:37;19.93;;;15.30;;
2840;SDS011;53423;49.224;12.074;2023-03-01T03:15:08;19.90;;;14.63;;
2840;SDS011;53423;49.224;12.074;2023-03-01T03:17:39;19.33;;;15.10;;
2840;SDS011;53423;49.224;12.074;2023-03-01T03:20:12;20.17;;;14.97;;
2840;SDS011;53423;49.224;12.074;2023-03-01T03:22:45;21.47;;;16.27;;
2840;SDS011;53423;49.224;12.074;2023-03-01T03:25:15;18.07;;;14.67;;
2840;SDS011;53423;49.224;12.074;2023-03-01T03:27:44;19.37;;;14.60;;
2840;SDS011;53423;49.224;12.074;2023-03-01T03:30:15;19.73;;;15.07;;
2840;SDS011;53423;49.224;12.074;2023-03-01T03:32:47;21.10;;;16.13;;
2840;SDS011;53423;49.224;12.074;2023-03-01T03:35:19;21.63;;;16.00;;
2840;SDS011;53423;49.224;12.074;2023-03-01T03:37:48;20.37;;;15.97;;
2840;SDS011;53423;49.224;12.074;2023-03-01T03:43:01;21.07;;;16.30;;
2840;SDS011;53423;49.224;12.074;2023-03-01T03:45:31;19.07;;;14.97;;
2840;SDS011;53423;49.224;12.074;2023-03-01T03:48:01;19.97;;;14.97;;
2840;SDS011;53423;49.224;12.074;2023-03-01T03:50:32;19.83;;;14.97;;
2840;SDS011;53423;49.224;12.074;2023-03-01T03:53:00;22.07;;;15.93;;
2840;SDS011;53423;49.224;12.074;2023-03-01T03:55:28;17.93;;;14.23;;
2840;SDS011;53423;49.224;12.074;2023-03-01T03:57:57;20.37;;;16.10;;
2840;SDS011;53423;49.224;12.074;2023-03-01T04:00:28;18.00;;;14.80;;
2840;SDS011;53423;49.224;12.074;2023-03-01T04:02:58;19.70;;;15.50;;
2840;SDS011;53423;49.224;12.074;2023-03-01T04:05:27;20.63;;;15.40;;
2840;SDS011;53423;49.224;12.074;2023-03-01T04:07:55;20.90;;;16.27;;
2840;SDS011;53423;49.224;12.074;2023-03-01T04:10:34;24.07;;;17.67;;
2840;SDS011;53423;49.224;12.074;2023-03-01T04:13:04;25.27;;;17.93;;
2840;SDS011;53423;49.224;12.074;2023-03-01T04:15:33;23.10;;;17.30;;
2840;SDS011;53423;49.224;12.074;2023-03-01T04:18:03;21.53;;;16.70;;
2840;SDS011;53423;49.224;12.074;2023-03-01T04:20:33;21.93;;;15.67;;
2840;SDS011;53423;49.224;12.074;2023-03-01T04:23:03;20.37;;;15.33;;
2840;SDS011;53423;49.224;12.074;2023-03-01T04:25:39;21.03;;;15.33;;
2840;SDS011;53423;49.224;12.074;2023-03-01T04:28:09;21.10;;;15.80;;
2840;SDS011;53423;49.224;12.074;2023-03-01T04:30:37;21.40;;;16.27;;
2840;SDS011;53423;49.224;12.074;2023-03-01T04:33:10;20.57;;;15.77;;
2840;SDS011;53423;49.224;12.074;2023-03-01T04:35:38;21.13;;;16.13;;
2840;SDS011;53423;49.224;12.074;2023-03-01T04:38:06;20.27;;;16.30;;
2840;SDS011;53423;49.224;12.074;2023-03-01T04:40:37;20.37;;;16.53;;
2840;SDS011;53423;49.224;12.074;2023-03-01T04:43:08;21.63;;;16.43;;
2840;SDS011;53423;49.224;12.074;2023-03-01T04:45:37;20.13;;;15.43;;
2840;SDS011;53423;49.224;12.074;2023-03-01T04:48:05;23.07;;;16.60;;
2840;SDS011;53423;49.224;12.074;2023-03-01T04:50:35;20.37;;;16.90;;
2840;SDS011;53423;49.224;12.074;2023-03-01T04:53:03;22.43;;;16.83;;
2840;SDS011;53423;49.224;12.074;2023-03-01T04:55:31;22.83;;;17.03;;
2840;SDS011;53423;49.224;12.074;2023-03-01T04:57:59;22.60;;;16.67;;
2840;SDS011;53423;49.224;12.074;2023-03-01T05:00:27;23.70;;;17.80;;
2840;SDS011;53423;49.224;12.074;2023-03-01T05:02:55;20.93;;;15.93;;
2840;SDS011;53423;49.224;12.074;2023-03-01T05:05:26;21.07;;;17.23;;
2840;SDS011;53423;49.224;12.074;2023-03-01T05:07:57;23.60;;;16.77;;
2840;SDS011;53423;49.224;12.074;2023-03-01T05:10:26;22.87;;;16.50;;
2840;SDS011;53423;49.224;12.074;2023-03-01T05:12:56;22.27;;;16.13;;
2840;SDS011;53423;49.224;12.074;2023-03-01T05:15:25;23.00;;;16.77;;
2840;SDS011;53423;49.224;12.074;2023-03-01T05:17:56;21.27;;;17.07;;
2840;SDS011;53423;49.224;12.074;2023-03-01T05:20:26;23.10;;;16.17;;
2840;SDS011;53423;49.224;12.074;2023-03-01T05:22:57;22.60;;;17.17;;
2840;SDS011;53423;49.224;12.074;2023-03-01T05:25:26;22.73;;;16.10;;
2840;SDS011;53423;49.224;12.074;2023-03-01T05:28:02;23.33;;;16.93;;
2840;SDS011;53423;49.224;12.074;2023-03-01T05:30:31;23.53;;;17.13;;
2840;SDS011;53423;49.224;12.074;2023-03-01T05:32:59;24.43;;;18.17;;
2840;SDS011;53423;49.224;12.074;2023-03-01T05:35:27;23.10;;;17.83;;
2840;SDS011;53423;49.224;12.074;2023-03-01T05:37:57;23.53;;;17.97;;
2840;SDS011;53423;49.224;12.074;2023-03-01T05:40:25;26.10;;;18.70;;
2840;SDS011;53423;49.224;12.074;2023-03-01T05:42:53;26.00;;;18.30;;
2840;SDS011;53423;49.224;12.074;2023-03-01T05:45:23;28.17;;;21.30;;
2840;SDS011;53423;49.224;12.074;2023-03-01T05:47:53;27.93;;;18.47;;
2840;SDS011;53423;49.224;12.074;2023-03-01T05:50:22;26.67;;;18.20;;
2840;SDS011;53423;49.224;12.074;2023-03-01T05:52:52;24.50;;;18.73;;
2840;SDS011;53423;49.224;12.074;2023-03-01T05:55:25;27.37;;;18.70;;
2840;SDS011;53423;49.224;12.074;2023-03-01T05:57:54;23.00;;;18.10;;
2840;SDS011;53423;49.224;12.074;2023-03-01T06:00:22;23.87;;;18.30;;
2840;SDS011;53423;49.224;12.074;2023-03-01T06:02:50;23.50;;;17.87;;
2840;SDS011;53423;49.224;12.074;2023-03-01T06:05:18;25.27;;;19.73;;
2840;SDS011;53423;49.224;12.074;2023-03-01T06:07:47;25.73;;;18.03;;
2840;SDS011;53423;49.224;12.074;2023-03-01T06:10:16;25.87;;;18.47;;
2840;SDS011;53423;49.224;12.074;2023-03-01T06:12:46;24.27;;;18.43;;
2840;SDS011;53423;49.224;12.074;2023-03-01T06:15:14;23.93;;;17.93;;
2840;SDS011;53423;49.224;12.074;2023-03-01T06:17:44;25.10;;;18.43;;
2840;SDS011;53423;49.224;12.074;2023-03-01T06:20:13;24.80;;;18.77;;
2840;SDS011;53423;49.224;12.074;2023-03-01T06:22:42;25.07;;;17.67;;
2840;SDS011;53423;49.224;12.074;2023-03-01T06:25:12;22.33;;;17.53;;
2840;SDS011;53423;49.224;12.074;2023-03-01T06:27:45;23.10;;;17.87;;
2840;SDS011;53423;49.224;12.074;2023-03-01T06:30:15;23.83;;;19.00;;
2840;SDS011;53423;49.224;12.074;2023-03-01T06:32:44;24.97;;;19.80;;
2840;SDS011;53423;49.224;12.074;2023-03-01T06:35:13;28.47;;;21.30;;
2840;SDS011;53423;49.224;12.074;2023-03-01T06:37:43;35.03;;;24.77;;
2840;SDS011;53423;49.224;12.074;2023-03-01T06:40:12;26.27;;;21.33;;
2840;SDS011;53423;49.224;12.074;2023-03-01T06:42:47;25.03;;;20.07;;
2840;SDS011;53423;49.224;12.074;2023-03-01T06:45:18;24.70;;;19.87;;
2840;SDS011;53423;49.224;12.074;2023-03-01T06:47:46;24.10;;;21.00;;
2840;SDS011;53423;49.224;12.074;2023-03-01T06:50:15;25.00;;;19.47;;
2840;SDS011;53423;49.224;12.074;2023-03-01T06:52:45;22.67;;;17.53;;
2840;SDS011;53423;49.224;12.074;2023-03-01T06:55:16;20.10;;;16.77;;
2840;SDS011;53423;49.224;12.074;2023-03-01T06:57:43;20.43;;;17.17;;
2840;SDS011;53423;49.224;12.074;2023-03-01T07:02:44;19.30;;;16.90;;
2840;SDS011;53423;49.224;12.074;2023-03-01T07:05:12;21.63;;;17.60;;
2840;SDS011;53423;49.224;12.074;2023-03-01T07:07:40;21.67;;;18.20;;
2840;SDS011;53423;49.224;12.074;2023-03-01T07:10:09;22.13;;;19.83;;
2840;SDS011;53423;49.224;12.074;2023-03-01T07:12:37;22.27;;;19.97;;
2840;SDS011;53423;49.224;12.074;2023-03-01T07:15:06;21.20;;;18.83;;
2840;SDS011;53423;49.224;12.074;2023-03-01T07:17:37;20.80;;;18.53;;
2840;SDS011;53423;49.224;12.074;2023-03-01T07:20:05;20.67;;;18.57;;
2840;SDS011;53423;49.224;12.074;2023-03-01T07:22:33;21.53;;;19.33;;
2840;SDS011;53423;49.224;12.074;2023-03-01T07:25:01;21.27;;;19.17;;
2840;SDS011;53423;49.224;12.074;2023-03-01T07:27:29;22.10;;;19.93;;
2840;SDS011;53423;49.224;12.074;2023-03-01T07:29:57;20.70;;;18.57;;
2840;SDS011;53423;49.224;12.074;2023-03-01T07:32:25;21.63;;;19.43;;
2840;SDS011;53423;49.224;12.074;2023-03-01T07:34:54;21.30;;;19.13;;
2840;SDS011;53423;49.224;12.074;2023-03-01T07:37:22;21.33;;;19.20;;
2840;SDS011;53423;49.224;12.074;2023-03-01T07:39:50;20.30;;;18.37;;
2840;SDS011;53423;49.224;12.074;2023-03-01T07:42:18;21.27;;;19.07;;
2840;SDS011;53423;49.224;12.074;2023-03-01T07:44:46;20.10;;;18.13;;
2840;SDS011;53423;49.224;12.074;2023-03-01T07:47:14;20.80;;;18.60;;
2840;SDS011;53423;49.224;12.074;2023-03-01T07:49:42;20.27;;;18.23;;
2840;SDS011;53423;49.224;12.074;2023-03-01T07:52:11;21.70;;;19.50;;
2840;SDS011;53423;49.224;12.074;2023-03-01T07:54:41;21.90;;;19.60;;
2840;SDS011;53423;49.224;12.074;2023-03-01T07:57:10;22.57;;;20.17;;
2840;SDS011;53423;49.224;12.074;2023-03-01T07:59:38;20.83;;;18.73;;
2840;SDS011;53423;49.224;12.074;2023-03-01T08:02:07;20.07;;;18.07;;
2840;SDS011;53423;49.224;12.074;2023-03-01T08:04:36;21.17;;;19.13;;
2840;SDS011;53423;49.224;12.074;2023-03-01T08:07:04;23.07;;;20.40;;
2840;SDS011;53423;49.224;12.074;2023-03-01T08:09:35;22.00;;;19.77;;
2840;SDS011;53423;49.224;12.074;2023-03-01T08:12:03;20.73;;;18.57;;
2840;SDS011;53423;49.224;12.074;2023-03-01T08:14:33;21.17;;;19.03;;
2840;SDS011;53423;49.224;12.074;2023-03-01T08:17:01;21.37;;;19.17;;
2840;SDS011;53423;49.224;12.074;2023-03-01T08:19:30;21.63;;;19.40;;
2840;SDS011;53423;49.224;12.074;2023-03-01T08:21:59;21.73;;;19.57;;
2840;SDS011;53423;49.224;12.074;2023-03-01T08:24:27;22.17;;;19.97;;
2840;SDS011;53423;49.224;12.074;2023-03-01T08:26:57;22.50;;;20.13;;
2840;SDS011;53423;49.224;12.074;2023-03-01T08:29:24;23.13;;;19.90;;
2840;SDS011;53423;49.224;12.074;2023-03-01T08:31:52;22.97;;;19.83;;
2840;SDS011;53423;49.224;12.074;2023-03-01T08:34:20;23.13;;;20.67;;
2840;SDS011;53423;49.224;12.074;2023-03-01T08:36:48;22.07;;;19.83;;
2840;SDS011;53423;49.224;12.074;2023-03-01T08:39:19;21.67;;;19.43;;
2840;SDS011;53423;49.224;12.074;2023-03-01T08:41:47;20.97;;;18.83;;
2840;SDS011;53423;49.224;12.074;2023-03-01T08:44:17;21.40;;;19.20;;
2840;SDS011;53423;49.224;12.074;2023-03-01T08:46:46;21.23;;;18.77;;
2840;SDS011;53423;49.224;12.074;2023-03-01T08:49:16;21.47;;;19.20;;
2840;SDS011;53423;49.224;12.074;2023-03-01T08:51:46;21.43;;;19.13;;
2840;SDS011;53423;49.224;12.074;2023-03-01T08:54:15;20.30;;;18.30;;
2840;SDS011;53423;49.224;12.074;2023-03-01T08:56:45;20.87;;;18.67;;
2840;SDS011;53423;49.224;12.074;2023-03-01T08:59:14;20.13;;;18.33;;
2840;SDS011;53423;49.224;12.074;2023-03-01T09:01:44;20.47;;;18.40;;
2840;SDS011;53423;49.224;12.074;2023-03-01T09:04:14;20.27;;;18.17;;
2840;SDS011;53423;49.224;12.074;2023-03-01T09:06:42;19.47;;;17.47;;
2840;SDS011;53423;49.224;12.074;2023-03-01T09:09:12;18.77;;;16.97;;
2840;SDS011;53423;49.224;12.074;2023-03-01T09:11:42;20.57;;;18.37;;
2840;SDS011;53423;49.224;12.074;2023-03-01T09:14:12;19.87;;;17.77;;
2840;SDS011;53423;49.224;12.074;2023-03-01T09:16:41;21.07;;;18.90;;
2840;SDS011;53423;49.224;12.074;2023-03-01T09:19:10;21.13;;;18.97;;
2840;SDS011;53423;49.224;12.074;2023-03-01T09:21:38;20.10;;;18.07;;
2840;SDS011;53423;49.224;12.074;2023-03-01T09:24:08;19.80;;;17.90;;
2840;SDS011;53423;49.224;12.074;2023-03-01T09:26:40;18.53;;;16.73;;
2840;SDS011;53423;49.224;12.074;2023-03-01T09:29:08;19.20;;;17.20;;
2840;SDS011;53423;49.224;12.074;2023-03-01T09:31:37;17.90;;;16.20;;
2840;SDS011;53423;49.224;12.074;2023-03-01T09:34:05;18.73;;;16.87;;
2840;SDS011;53423;49.224;12.074;2023-03-01T09:36:35;19.87;;;17.23;;
2840;SDS011;53423;49.224;12.074;2023-03-01T09:39:03;17.60;;;15.90;;
2840;SDS011;53423;49.224;12.074;2023-03-01T09:41:38;18.63;;;16.83;;
2840;SDS011;53423;49.224;12.074;2023-03-01T09:44:16;17.53;;;15.83;;
2840;SDS011;53423;49.224;12.074;2023-03-01T09:46:51;17.40;;;15.60;;
2840;SDS011;53423;49.224;12.074;2023-03-01T09:49:20;17.67;;;15.97;;
2840;SDS011;53423;49.224;12.074;2023-03-01T09:51:57;18.67;;;16.73;;
2840;SDS011;53423;49.224;12.074;2023-03-01T09:54:28;17.53;;;15.80;;
2840;SDS011;53423;49.224;12.074;2023-03-01T09:57:06;17.77;;;16.07;;
2840;SDS011;53423;49.224;12.074;2023-03-01T09:59:50;16.97;;;15.27;;
2840;SDS011;53423;49.224;12.074;2023-03-01T10:02:27;17.17;;;15.57;;
2840;SDS011;53423;49.224;12.074;2023-03-01T10:05:04;16.23;;;14.63;;
2840;SDS011;53423;49.224;12.074;2023-03-01T10:07:41;16.47;;;14.73;;
2840;SDS011;53423;49.224;12.074;2023-03-01T10:10:23;16.33;;;14.77;;
2840;SDS011;53423;49.224;12.074;2023-03-01T10:12:55;16.40;;;14.80;;
2840;SDS011;53423;49.224;12.074;2023-03-01T10:15:25;17.07;;;15.33;;
2840;SDS011;53423;49.224;12.074;2023-03-01T10:18:02;17.30;;;15.33;;
2840;SDS011;53423;49.224;12.074;2023-03-01T10:20:36;17.27;;;15.47;;
2840;SDS011;53423;49.224;12.074;2023-03-01T10:23:12;17.00;;;15.30;;
2840;SDS011;53423;49.224;12.074;2023-03-01T10:25:45;16.17;;;14.60;;
2840;SDS011;53423;49.224;12.074;2023-03-01T10:28:23;16.80;;;15.13;;
2840;SDS011;53423;49.224;12.074;2023-03-01T10:30:55;18.37;;;15.90;;
2840;SDS011;53423;49.224;12.074;2023-03-01T10:33:26;16.17;;;14.73;;
2840;SDS011;53423;49.224;12.074;2023-03-01T10:35:56;15.90;;;14.37;;
2840;SDS011;53423;49.224;12.074;2023-03-01T10:38:26;16.10;;;14.70;;
2840;SDS011;53423;49.224;12.074;2023-03-01T10:40:57;15.80;;;14.30;;
2840;SDS011;53423;49.224;12.074;2023-03-01T10:43:32;16.17;;;14.67;;
2840;SDS011;53423;49.224;12.074;2023-03-01T10:46:21;16.47;;;14.87;;
2840;SDS011;53423;49.224;12.074;2023-03-01T10:49:05;15.47;;;14.03;;
2840;SDS011;53423;49.224;12.074;2023-03-01T10:51:35;16.70;;;15.00;;
2840;SDS011;53423;49.224;12.074;2023-03-01T10:54:08;17.27;;;15.60;;
2840;SDS011;53423;49.224;12.074;2023-03-01T10:56:48;16.10;;;14.60;;
2840;SDS011;53423;49.224;12.074;2023-03-01T10:59:22;16.30;;;14.63;;
2840;SDS011;53423;49.224;12.074;2023-03-01T11:02:09;14.37;;;12.97;;
2840;SDS011;53423;49.224;12.074;2023-03-01T11:04:57;15.30;;;13.80;;
2840;SDS011;53423;49.224;12.074;2023-03-01T11:07:27;15.13;;;13.63;;
2840;SDS011;53423;49.224;12.074;2023-03-01T11:09:57;15.37;;;13.83;;
2840;SDS011;53423;49.224;12.074;2023-03-01T11:12:25;14.90;;;13.47;;
2840;SDS011;53423;49.224;12.074;2023-03-01T11:14:56;15.93;;;14.30;;
2840;SDS011;53423;49.224;12.074;2023-03-01T11:17:25;15.73;;;14.13;;
2840;SDS011;53423;49.224;12.074;2023-03-01T11:20:02;15.13;;;13.73;;
2840;SDS011;53423;49.224;12.074;2023-03-01T11:22:46;14.67;;;13.37;;
2840;SDS011;53423;49.224;12.074;2023-03-01T11:25:17;15.27;;;13.77;;
2840;SDS011;53423;49.224;12.074;2023-03-01T11:27:49;14.83;;;13.37;;
2840;SDS011;53423;49.224;12.074;2023-03-01T11:30:18;17.37;;;15.63;;
2840;SDS011;53423;49.224;12.074;2023-03-01T11:32:50;15.13;;;13.73;;
2840;SDS011;53423;49.224;12.074;2023-03-01T11:35:28;16.23;;;14.53;;
2840;SDS011;53423;49.224;12.074;2023-03-01T11:38:02;13.53;;;12.20;;
2840;SDS011;53423;49.224;12.074;2023-03-01T11:40:41;14.13;;;12.73;;
2840;SDS011;53423;49.224;12.074;2023-03-01T11:43:22;14.57;;;13.17;;
2840;SDS011;53423;49.224;12.074;2023-03-01T11:46:02;14.33;;;13.03;;
2840;SDS011;53423;49.224;12.074;2023-03-01T11:48:51;14.33;;;12.93;;
2840;SDS011;53423;49.224;12.074;2023-03-01T11:51:31;14.30;;;12.87;;
2840;SDS011;53423;49.224;12.074;2023-03-01T11:54:12;15.40;;;14.00;;
2840;SDS011;53423;49.224;12.074;2023-03-01T11:56:50;15.93;;;14.43;;
2840;SDS011;53423;49.224;12.074;2023-03-01T11:59:27;15.53;;;14.07;;
2840;SDS011;53423;49.224;12.074;2023-03-01T12:08:20;16.23;;;14.63;;
2840;SDS011;53423;49.224;12.074;2023-03-01T12:10:57;15.23;;;13.80;;
2840;SDS011;53423;49.224;12.074;2023-03-01T12:13:49;17.17;;;15.47;;
2840;SDS011;53423;49.224;12.074;2023-03-01T12:16:29;16.87;;;15.13;;
2840;SDS011;53423;49.224;12.074;2023-03-01T12:19:12;16.70;;;15.10;;
2840;SDS011;53423;49.224;12.074;2023-03-01T12:21:53;16.53;;;14.83;;
2840;SDS011;53423;49.224;12.074;2023-03-01T12:24:35;16.27;;;14.67;;
2840;SDS011;53423;49.224;12.074;2023-03-01T12:27:23;16.80;;;15.20;;
2840;SDS011;53423;49.224;12.074;2023-03-01T12:30:04;17.07;;;15.37;;
2840;SDS011;53423;49.224;12.074;2023-03-01T12:32:47;17.60;;;15.90;;
2840;SDS011;53423;49.224;12.074;2023-03-01T12:35:31;18.30;;;16.50;;
2840;SDS011;53423;49.224;12.074;2023-03-01T12:38:21;18.47;;;16.67;;
2840;SDS011;53423;49.224;12.074;2023-03-01T12:41:05;17.03;;;15.23;;
2840;SDS011;53423;49.224;12.074;2023-03-01T12:43:57;18.17;;;16.23;;
2840;SDS011;53423;49.224;12.074;2023-03-01T12:50:37;17.77;;;16.07;;
2840;SDS011;53423;49.224;12.074;2023-03-01T12:53:14;17.23;;;15.53;;
2840;SDS011;53423;49.224;12.074;2023-03-01T12:55:49;18.00;;;16.20;;
2840;SDS011;53423;49.224;12.074;2023-03-01T12:58:35;17.70;;;16.00;;
2840;SDS011;53423;49.224;12.074;2023-03-01T13:01:19;18.20;;;16.40;;
2840;SDS011;53423;49.224;12.074;2023-03-01T13:04:06;18.13;;;16.23;;
2840;SDS011;53423;49.224;12.074;2023-03-01T13:06:47;18.10;;;16.30;;
2840;SDS011;53423;49.224;12.074;2023-03-01T13:09:30;19.80;;;17.80;;
2840;SDS011;53423;49.224;12.074;2023-03-01T13:15:16;19.83;;;17.90;;
2840;SDS011;53423;49.224;12.074;2023-03-01T13:17:54;20.67;;;18.47;;
2840;SDS011;53423;49.224;12.074;2023-03-01T13:20:26;20.90;;;18.70;;
2840;SDS011;53423;49.224;12.074;2023-03-01T13:23:07;20.90;;;18.80;;
2840;SDS011;53423;49.224;12.074;2023-03-01T13:25:59;20.53;;;18.43;;
2840;SDS011;53423;49.224;12.074;2023-03-01T13:28:46;21.40;;;19.33;;
2840;SDS011;53423;49.224;12.074;2023-03-01T13:34:47;20.53;;;18.33;;
2840;SDS011;53423;49.224;12.074;2023-03-01T13:37:23;21.00;;;18.53;;
2840;SDS011;53423;49.224;12.074;2023-03-01T13:42:42;22.00;;;19.20;;
2840;SDS011;53423;49.224;12.074;2023-03-01T13:45:27;21.20;;;18.60;;
2840;SDS011;53423;49.224;12.074;2023-03-01T13:48:08;20.40;;;17.93;;
2840;SDS011;53423;49.224;12.074;2023-03-01T13:50:38;20.53;;;18.33;;
2840;SDS011;53423;49.224;12.074;2023-03-01T13:53:14;20.70;;;18.60;;
2840;SDS011;53423;49.224;12.074;2023-03-01T13:55:46;21.33;;;19.03;;
2840;SDS011;53423;49.224;12.074;2023-03-01T13:58:22;21.97;;;19.50;;
2840;SDS011;53423;49.224;12.074;2023-03-01T14:00:55;21.57;;;19.30;;
2840;SDS011;53423;49.224;12.074;2023-03-01T14:03:24;20.87;;;18.40;;
2840;SDS011;53423;49.224;12.074;2023-03-01T14:06:05;21.00;;;18.80;;
2840;SDS011;53423;49.224;12.074;2023-03-01T14:08:46;20.67;;;18.00;;
2840;SDS011;53423;49.224;12.074;2023-03-01T14:11:35;22.00;;;18.63;;
2840;SDS011;53423;49.224;12.074;2023-03-01T14:14:29;23.40;;;20.77;;
2840;SDS011;53423;49.224;12.074;2023-03-01T14:17:05;19.70;;;17.70;;
2840;SDS011;53423;49.224;12.074;2023-03-01T14:19:42;20.27;;;18.20;;
2840;SDS011;53423;49.224;12.074;2023-03-01T14:22:15;19.47;;;17.47;;
2840;SDS011;53423;49.224;12.074;2023-03-01T14:24:47;20.53;;;18.33;;
2840;SDS011;53423;49.224;12.074;2023-03-01T14:27:17;20.17;;;18.10;;
2840;SDS011;53423;49.224;12.074;2023-03-01T14:29:55;20.20;;;18.20;;
2840;SDS011;53423;49.224;12.074;2023-03-01T14:32:25;20.27;;;18.07;;
2840;SDS011;53423;49.224;12.074;2023-03-01T14:34:54;19.70;;;17.60;;
2840;SDS011;53423;49.224;12.074;2023-03-01T14:37:24;20.97;;;17.67;;
2840;SDS011;53423;49.224;12.074;2023-03-01T14:39:54;20.93;;;18.00;;
2840;SDS011;53423;49.224;12.074;2023-03-01T14:42:23;20.10;;;18.10;;
2840;SDS011;53423;49.224;12.074;2023-03-01T14:44:56;20.03;;;17.80;;
2840;SDS011;53423;49.224;12.074;2023-03-01T14:47:26;20.13;;;18.13;;
2840;SDS011;53423;49.224;12.074;2023-03-01T14:49:57;18.73;;;16.43;;
2840;SDS011;53423;49.224;12.074;2023-03-01T14:52:29;18.77;;;16.87;;
2840;SDS011;53423;49.224;12.074;2023-03-01T14:55:02;17.80;;;15.90;;
2840;SDS011;53423;49.224;12.074;2023-03-01T14:57:32;16.90;;;15.10;;
2840;SDS011;53423;49.224;12.074;2023-03-01T15:00:03;17.67;;;15.27;;
2840;SDS011;53423;49.224;12.074;2023-03-01T15:02:33;16.83;;;15.03;;
2840;SDS011;53423;49.224;12.074;2023-03-01T15:05:03;16.93;;;14.70;;
2840;SDS011;53423;49.224;12.074;2023-03-01T15:07:35;16.90;;;15.13;;
2840;SDS011;53423;49.224;12.074;2023-03-01T15:10:07;17.00;;;15.23;;
2840;SDS011;53423;49.224;12.074;2023-03-01T15:12:44;18.50;;;15.57;;
2840;SDS011;53423;49.224;12.074;2023-03-01T15:15:20;16.77;;;14.90;;